Time;durP1;ratioP1;P1;durP2;ratioP2;P2;SDS_P1;SDS_P2;PMS_P1;PMS_P2;Temp;Humidity;BMP_temperature;BMP_pressure;BME280_temperature;BME280_humidity;BME280_pressure;Samples;Min_cycle;Max_cycle;Signal;HPM_P1;HPM_P2
2023/03/05 00:04:01;;;;;;;47.77;21.53;;;;;;;;;;10477847;28;20036;-83
2023/03/05 00:09:01;;;;;;;55.22;23.55;;;;;;;;;;10468883;28;20349;-81
2023/03/05 00:14:03;;;;;;;49.07;21.27;;;;;;;;;;10496900;28;20032;-81
2023/03/05 00:19:03;;;;;;;53.25;21.10;;;;;;;;;;10528123;28;20031;-74
2023/03/05 00:24:05;;;;;;;53.97;22.23;;;;;;;;;;10529084;28;20519;-75
2023/03/05 00:29:06;;;;;;;51.03;22.13;;;;;;;;;;10509956;28;20030;-71
2023/03/05 00:34:08;;;;;;;54.55;22.83;;;;;;;;;;10526943;28;20423;-75
2023/03/05 00:39:08;;;;;;;44.60;20.52;;;;;;;;;;10511206;28;20035;-74
2023/03/05 00:44:10;;;;;;;50.13;21.27;;;;;;;;;;10508859;28;20121;-75
2023/03/05 00:49:15;;;;;;;52.08;23.35;;;;;;;;;;10525657;28;20063;-79
2023/03/05 00:54:15;;;;;;;53.10;22.92;;;;;;;;;;10525241;28;20058;-79
2023/03/05 00:59:16;;;;;;;48.38;21.75;;;;;;;;;;10525866;28;20027;-76
2023/03/05 01:04:17;;;;;;;51.13;24.92;;;;;;;;;;10531345;28;20043;-82
2023/03/05 01:09:18;;;;;;;54.05;23.33;;;;;;;;;;10530096;28;20020;-73
2023/03/05 01:14:19;;;;;;;57.10;22.57;;;;;;;;;;10526411;28;20028;-80
2023/03/05 01:19:19;;;;;;;49.72;20.85;;;;;;;;;;10524232;28;20041;-74
2023/03/05 01:24:20;;;;;;;51.10;19.65;;;;;;;;;;10509425;28;20069;-80
2023/03/05 01:29:20;;;;;;;43.20;17.85;;;;;;;;;;10525888;28;20027;-78
2023/03/05 01:34:21;;;;;;;45.35;17.70;;;;;;;;;;10508289;28;20023;-77
2023/03/05 01:39:21;;;;;;;45.50;18.40;;;;;;;;;;10525084;28;20140;-73
2023/03/05 01:44:22;;;;;;;37.20;16.02;;;;;;;;;;10527300;28;20262;-77
2023/03/05 01:49:28;;;;;;;32.00;14.27;;;;;;;;;;10523709;28;20056;-75
2023/03/05 01:54:32;;;;;;;39.13;15.90;;;;;;;;;;10523628;28;20116;-79
2023/03/05 01:59:33;;;;;;;44.55;16.20;;;;;;;;;;10524040;28;20405;-75
2023/03/05 02:04:36;;;;;;;32.28;14.95;;;;;;;;;;10506455;28;20490;-74
2023/03/05 02:09:38;;;;;;;34.10;14.65;;;;;;;;;;10507590;28;20020;-79
2023/03/05 02:14:40;;;;;;;33.85;15.35;;;;;;;;;;10523407;28;20016;-74
2023/03/05 02:19:54;;;;;;;31.50;14.05;;;;;;;;;;10523480;28;20032;-80
2023/03/05 02:24:55;;;;;;;35.67;15.82;;;;;;;;;;10523244;28;20616;-82
2023/03/05 02:29:55;;;;;;;33.28;15.32;;;;;;;;;;10525929;28;20027;-74
2023/03/05 02:34:55;;;;;;;31.42;14.73;;;;;;;;;;10514955;28;20027;-83
2023/03/05 02:39:55;;;;;;;34.63;15.50;;;;;;;;;;10531755;28;20011;-78
2023/03/05 02:44:56;;;;;;;30.58;14.00;;;;;;;;;;10532651;28;20107;-79
2023/03/05 02:49:57;;;;;;;35.55;14.20;;;;;;;;;;10531522;28;20044;-81
2023/03/05 02:54:57;;;;;;;37.40;14.93;;;;;;;;;;10530345;28;20030;-73
2023/03/05 02:59:57;;;;;;;33.83;15.85;;;;;;;;;;10487608;28;20402;-74
2023/03/05 03:05:01;;;;;;;40.83;16.75;;;;;;;;;;10527925;28;20052;-77
2023/03/05 03:10:02;;;;;;;40.90;17.10;;;;;;;;;;10530012;28;20103;-71
2023/03/05 03:15:02;;;;;;;38.15;15.85;;;;;;;;;;10529144;28;20042;-75
2023/03/05 03:20:04;;;;;;;39.40;16.58;;;;;;;;;;10531733;28;20023;-78
2023/03/05 03:25:05;;;;;;;43.17;17.83;;;;;;;;;;10529911;28;20127;-76
2023/03/05 03:30:05;;;;;;;43.00;16.33;;;;;;;;;;10528747;28;20030;-75
2023/03/05 03:35:06;;;;;;;34.20;16.50;;;;;;;;;;10511898;28;20027;-75
2023/03/05 03:40:07;;;;;;;40.08;17.23;;;;;;;;;;10530268;28;20497;-74
2023/03/05 03:45:07;;;;;;;41.42;17.92;;;;;;;;;;10527972;28;20053;-83
2023/03/05 03:50:08;;;;;;;46.42;19.02;;;;;;;;;;10529516;28;20115;-77
2023/03/05 03:55:09;;;;;;;41.63;18.98;;;;;;;;;;10527640;28;20031;-72
2023/03/05 04:00:10;;;;;;;39.10;19.75;;;;;;;;;;10461422;28;20102;-73
2023/03/05 04:05:10;;;;;;;46.00;19.45;;;;;;;;;;10494800;28;20042;-81
2023/03/05 04:10:11;;;;;;;42.65;18.75;;;;;;;;;;10469592;28;20020;-73
2023/03/05 04:15:11;;;;;;;43.25;18.52;;;;;;;;;;10499088;28;20020;-77
2023/03/05 04:20:12;;;;;;;49.38;19.42;;;;;;;;;;10510322;28;20016;-75
2023/03/05 04:25:12;;;;;;;48.70;18.88;;;;;;;;;;10509303;28;20140;-79
2023/03/05 04:30:15;;;;;;;42.40;18.98;;;;;;;;;;10509935;28;20320;-73
2023/03/05 04:35:16;;;;;;;40.97;17.75;;;;;;;;;;10510305;28;20505;-76
2023/03/05 04:40:16;;;;;;;44.33;19.45;;;;;;;;;;10509196;28;20119;-75
2023/03/05 04:45:17;;;;;;;43.65;17.83;;;;;;;;;;10510846;28;20498;-77
2023/03/05 04:50:17;;;;;;;45.97;18.10;;;;;;;;;;10510915;28;20052;-79
2023/03/05 04:55:18;;;;;;;47.65;18.52;;;;;;;;;;10507355;28;20143;-78
2023/03/05 05:00:18;;;;;;;49.37;18.47;;;;;;;;;;10508494;28;20024;-80
2023/03/05 05:05:20;;;;;;;41.88;17.33;;;;;;;;;;10526893;28;20138;-78
2023/03/05 05:10:21;;;;;;;39.13;17.48;;;;;;;;;;10508289;28;20013;-78
2023/03/05 05:15:21;;;;;;;45.30;18.00;;;;;;;;;;10507785;28;20598;-74
2023/03/05 05:20:21;;;;;;;47.28;18.70;;;;;;;;;;10507230;28;20273;-74
2023/03/05 05:25:21;;;;;;;43.38;18.27;;;;;;;;;;10507968;28;20085;-79
2023/03/05 05:30:22;;;;;;;38.97;17.00;;;;;;;;;;10504042;28;20028;-74
2023/03/05 05:35:25;;;;;;;43.55;17.70;;;;;;;;;;10497952;28;20025;-82
2023/03/05 05:40:25;;;;;;;36.53;16.95;;;;;;;;;;10489990;28;20020;-77
2023/03/05 05:45:26;;;;;;;35.72;15.07;;;;;;;;;;10491567;28;20028;-80
2023/03/05 05:50:26;;;;;;;40.55;14.80;;;;;;;;;;10495607;28;20051;-82
2023/03/05 05:55:26;;;;;;;32.83;14.33;;;;;;;;;;10503496;28;20119;-75
2023/03/05 06:00:26;;;;;;;33.63;14.38;;;;;;;;;;10518911;28;20031;-74
2023/03/05 06:05:27;;;;;;;36.40;14.45;;;;;;;;;;10504237;28;20107;-77
2023/03/05 06:10:27;;;;;;;32.00;13.88;;;;;;;;;;10501212;28;20083;-74
2023/03/05 06:15:27;;;;;;;33.10;14.35;;;;;;;;;;10517892;28;20024;-80
2023/03/05 06:20:28;;;;;;;33.55;13.55;;;;;;;;;;10498873;28;20517;-80
2023/03/05 06:25:28;;;;;;;25.60;12.03;;;;;;;;;;10505396;28;20028;-75
2023/03/05 06:30:28;;;;;;;38.63;12.48;;;;;;;;;;10519913;28;20451;-79
2023/03/05 06:35:28;;;;;;;32.90;12.25;;;;;;;;;;10501572;28;20081;-78
2023/03/05 06:40:29;;;;;;;35.47;12.75;;;;;;;;;;10507927;28;20107;-81
2023/03/05 06:45:29;;;;;;;32.37;13.67;;;;;;;;;;10510912;28;20082;-76
2023/03/05 06:50:29;;;;;;;29.73;12.77;;;;;;;;;;10505354;28;20318;-73
2023/03/05 06:55:38;;;;;;;31.43;14.33;;;;;;;;;;10494454;28;20401;-80
2023/03/05 07:00:39;;;;;;;30.38;12.85;;;;;;;;;;10506694;28;20116;-76
2023/03/05 07:05:40;;;;;;;30.35;12.93;;;;;;;;;;10478455;28;20021;-75
2023/03/05 07:10:41;;;;;;;31.92;12.25;;;;;;;;;;10469516;28;20178;-77
2023/03/05 07:15:41;;;;;;;28.52;11.55;;;;;;;;;;10492236;28;20067;-75
2023/03/05 07:20:43;;;;;;;29.63;12.60;;;;;;;;;;10517613;28;20124;-75
2023/03/05 07:25:43;;;;;;;29.95;14.20;;;;;;;;;;10491848;28;20060;-81
2023/03/05 07:30:43;;;;;;;33.35;13.38;;;;;;;;;;10498530;28;20139;-77
2023/03/05 07:35:45;;;;;;;37.25;14.68;;;;;;;;;;10495507;28;20430;-74
2023/03/05 07:40:46;;;;;;;30.75;13.15;;;;;;;;;;10517227;28;20029;-80
2023/03/05 07:45:46;;;;;;;34.03;13.32;;;;;;;;;;10515297;28;20555;-75
2023/03/05 07:50:46;;;;;;;38.85;15.73;;;;;;;;;;10504492;28;20655;-76
2023/03/05 07:55:47;;;;;;;32.25;14.40;;;;;;;;;;10501434;28;20024;-78
2023/03/05 08:00:48;;;;;;;36.75;14.40;;;;;;;;;;10527596;28;20070;-80
2023/03/05 08:05:49;;;;;;;41.05;17.42;;;;;;;;;;10507577;28;20024;-83
2023/03/05 08:10:49;;;;;;;37.97;16.93;;;;;;;;;;10508342;28;20032;-77
2023/03/05 08:15:49;;;;;;;34.30;16.65;;;;;;;;;;10527580;28;20258;-84
2023/03/05 08:20:51;;;;;;;42.27;17.13;;;;;;;;;;10492339;28;20024;-79
2023/03/05 08:25:51;;;;;;;42.70;17.67;;;;;;;;;;10500873;28;20028;-76
2023/03/05 08:30:53;;;;;;;41.75;17.48;;;;;;;;;;10499987;28;20032;-84
2023/03/05 08:35:53;;;;;;;43.03;17.33;;;;;;;;;;10501168;28;20016;-78
2023/03/05 08:40:53;;;;;;;39.00;17.33;;;;;;;;;;10506104;28;20051;-77
2023/03/05 08:45:53;;;;;;;42.35;18.90;;;;;;;;;;10533664;28;20024;-77
2023/03/05 08:50:55;;;;;;;45.65;18.98;;;;;;;;;;10509751;28;20052;-73
2023/03/05 08:55:57;;;;;;;43.25;17.08;;;;;;;;;;10530514;28;20039;-80
2023/03/05 09:00:58;;;;;;;42.00;18.42;;;;;;;;;;10509822;28;20483;-77
2023/03/05 09:05:59;;;;;;;40.28;17.42;;;;;;;;;;10507629;28;20020;-76
2023/03/05 09:11:00;;;;;;;41.83;18.40;;;;;;;;;;10501637;28;20023;-76
2023/03/05 09:16:04;;;;;;;37.88;15.38;;;;;;;;;;10510464;28;20008;-81
2023/03/05 09:21:09;;;;;;;34.03;15.50;;;;;;;;;;10508407;28;20024;-76
2023/03/05 09:26:14;;;;;;;39.55;16.90;;;;;;;;;;10510972;28;20032;-81
2023/03/05 09:31:15;;;;;;;35.45;15.68;;;;;;;;;;10525221;28;20398;-75
2023/03/05 09:36:16;;;;;;;33.40;14.15;;;;;;;;;;10527016;28;20027;-81
2023/03/05 09:41:17;;;;;;;36.83;15.80;;;;;;;;;;10490086;28;20039;-77
2023/03/05 09:46:39;;;;;;;32.10;14.80;;;;;;;;;;10525102;28;20024;-73
2023/03/05 09:51:41;;;;;;;32.95;15.10;;;;;;;;;;10476677;28;20112;-77
2023/03/05 09:56:44;;;;;;;36.45;14.85;;;;;;;;;;10523845;28;20028;-75
2023/03/05 10:01:48;;;;;;;34.28;15.93;;;;;;;;;;10523549;28;20047;-83
2023/03/05 10:06:51;;;;;;;33.33;14.38;;;;;;;;;;10527685;28;20036;-84
2023/03/05 10:11:57;;;;;;;27.90;13.82;;;;;;;;;;10516672;28;20027;-77
2023/03/05 10:17:17;;;;;;;31.80;13.68;;;;;;;;;;10514591;28;20015;-79
2023/03/05 10:22:17;;;;;;;28.77;13.48;;;;;;;;;;10507029;28;20042;-80
2023/03/05 10:27:32;;;;;;;28.08;13.02;;;;;;;;;;10516789;28;20024;-76
2023/03/05 10:32:37;;;;;;;26.63;12.80;;;;;;;;;;10527855;28;20028;-81
2023/03/05 10:37:58;;;;;;;29.23;13.68;;;;;;;;;;10527131;28;20070;-76
2023/03/05 10:43:22;;;;;;;31.08;15.20;;;;;;;;;;10488706;28;20553;-82
2023/03/05 10:48:44;;;;;;;26.65;12.30;;;;;;;;;;10524348;28;20087;-79
2023/03/05 10:53:55;;;;;;;28.60;12.15;;;;;;;;;;10518127;28;20024;-80
2023/03/05 10:58:55;;;;;;;25.25;11.18;;;;;;;;;;10532883;28;20463;-77
2023/03/05 11:03:59;;;;;;;21.47;10.60;;;;;;;;;;10512775;28;20135;-76
2023/03/05 11:09:20;;;;;;;23.15;10.48;;;;;;;;;;10530780;28;20085;-75
2023/03/05 11:14:29;;;;;;;19.88;10.50;;;;;;;;;;10512500;28;20039;-76
2023/03/05 11:19:33;;;;;;;23.10;9.75;;;;;;;;;;10531934;28;20016;-77
2023/03/05 11:24:33;;;;;;;24.08;10.45;;;;;;;;;;10513929;28;20023;-79
2023/03/05 11:29:34;;;;;;;23.45;11.23;;;;;;;;;;10529021;28;20020;-78
2023/03/05 11:34:34;;;;;;;18.43;9.77;;;;;;;;;;10502718;28;20028;-81
2023/03/05 11:39:39;;;;;;;27.00;12.18;;;;;;;;;;10529864;28;20043;-79
2023/03/05 11:44:50;;;;;;;25.30;12.82;;;;;;;;;;10514302;28;20027;-79
2023/03/05 11:49:53;;;;;;;22.63;11.25;;;;;;;;;;10511369;28;20663;-79
2023/03/05 11:55:09;;;;;;;25.15;10.75;;;;;;;;;;10523265;28;20118;-81
2023/03/05 12:00:15;;;;;;;21.38;12.25;;;;;;;;;;10511000;28;20105;-77
2023/03/05 12:05:15;;;;;;;27.05;13.43;;;;;;;;;;10488315;28;20029;-75
2023/03/05 12:10:17;;;;;;;25.65;11.70;;;;;;;;;;10482178;28;20020;-77
2023/03/05 12:15:17;;;;;;;21.85;11.38;;;;;;;;;;10509045;28;20035;-73
2023/03/05 12:20:32;;;;;;;21.02;10.35;;;;;;;;;;10503001;28;20399;-77
2023/03/05 12:25:33;;;;;;;19.80;9.40;;;;;;;;;;10527278;28;20028;-76
2023/03/05 12:30:34;;;;;;;28.67;11.38;;;;;;;;;;10516803;28;20097;-80
2023/03/05 12:35:36;;;;;;;20.17;10.73;;;;;;;;;;10494296;28;20020;-80
2023/03/05 12:40:37;;;;;;;19.55;10.18;;;;;;;;;;10517447;28;20474;-75
2023/03/05 12:45:39;;;;;;;23.20;11.55;;;;;;;;;;10489187;28;20029;-76
2023/03/05 12:50:39;;;;;;;18.95;9.93;;;;;;;;;;10480101;28;20068;-76
2023/03/05 12:55:46;;;;;;;19.38;8.88;;;;;;;;;;10493680;28;20114;-77
2023/03/05 13:00:48;;;;;;;18.10;9.57;;;;;;;;;;10499727;28;20129;-74
2023/03/05 13:05:52;;;;;;;22.10;11.27;;;;;;;;;;10486108;28;20016;-75
2023/03/05 13:10:55;;;;;;;25.33;11.40;;;;;;;;;;10485548;28;20032;-75
2023/03/05 13:15:55;;;;;;;21.23;9.95;;;;;;;;;;10485342;28;20036;-71
2023/03/05 13:21:07;;;;;;;20.35;9.70;;;;;;;;;;10493919;28;20032;-78
2023/03/05 13:26:17;;;;;;;20.63;9.65;;;;;;;;;;10486772;28;20024;-79
2023/03/05 13:31:19;;;;;;;18.73;10.18;;;;;;;;;;10485332;28;20037;-76
2023/03/05 13:36:22;;;;;;;25.02;10.57;;;;;;;;;;10474162;28;20024;-77
2023/03/05 13:41:23;;;;;;;23.52;11.35;;;;;;;;;;10484820;28;20116;-79
2023/03/05 13:46:25;;;;;;;23.30;10.75;;;;;;;;;;10471656;28;20567;-73
2023/03/05 13:51:39;;;;;;;23.20;11.60;;;;;;;;;;10506159;28;20044;-74
2023/03/05 13:56:55;;;;;;;25.73;10.70;;;;;;;;;;10479515;28;20098;-81
2023/03/05 14:01:56;;;;;;;25.05;11.00;;;;;;;;;;10485350;28;20039;-78
2023/03/05 14:06:58;;;;;;;19.90;10.65;;;;;;;;;;10487533;28;20031;-75
2023/03/05 14:12:01;;;;;;;28.85;12.73;;;;;;;;;;10484165;28;20033;-78
2023/03/05 14:17:41;;;;;;;23.70;11.57;;;;;;;;;;10515946;28;20023;-78
2023/03/05 14:22:46;;;;;;;27.50;12.38;;;;;;;;;;10371639;28;20033;-71
2023/03/05 14:27:47;;;;;;;29.45;11.77;;;;;;;;;;10453490;28;20036;-77
2023/03/05 14:32:48;;;;;;;27.52;11.50;;;;;;;;;;10484024;28;20054;-77
2023/03/05 14:37:49;;;;;;;28.58;12.07;;;;;;;;;;10504205;28;20132;-78
2023/03/05 14:43:00;;;;;;;26.27;12.52;;;;;;;;;;10502186;28;20035;-78
2023/03/05 14:48:01;;;;;;;26.17;11.73;;;;;;;;;;10489028;28;20036;-75
2023/03/05 14:53:08;;;;;;;23.13;10.85;;;;;;;;;;10488598;28;20040;-80
2023/03/05 14:58:13;;;;;;;26.35;12.38;;;;;;;;;;10485079;28;20479;-76
2023/03/05 15:03:14;;;;;;;25.02;10.85;;;;;;;;;;10494375;28;20516;-81
2023/03/05 15:08:17;;;;;;;26.95;13.43;;;;;;;;;;10502536;28;20110;-74
2023/03/05 15:13:18;;;;;;;27.23;11.88;;;;;;;;;;10495685;28;20028;-79
2023/03/05 15:18:19;;;;;;;25.27;12.00;;;;;;;;;;10487682;28;20024;-72
2023/03/05 15:23:19;;;;;;;25.02;12.10;;;;;;;;;;10496165;28;20393;-78
2023/03/05 15:28:19;;;;;;;29.45;11.82;;;;;;;;;;10466643;28;20043;-77
2023/03/05 15:33:21;;;;;;;33.10;14.47;;;;;;;;;;10471005;28;20406;-77
2023/03/05 15:38:22;;;;;;;28.60;13.35;;;;;;;;;;10506569;28;20528;-76
2023/03/05 15:43:22;;;;;;;24.80;12.30;;;;;;;;;;10511121;28;20024;-79
2023/03/05 15:48:22;;;;;;;30.10;14.90;;;;;;;;;;10510747;28;20426;-80
2023/03/05 15:53:23;;;;;;;30.47;12.87;;;;;;;;;;10480864;28;20294;-80
2023/03/05 15:58:23;;;;;;;29.10;12.00;;;;;;;;;;10500157;28;20106;-73
2023/03/05 16:03:24;;;;;;;30.15;13.20;;;;;;;;;;10484022;28;20446;-78
2023/03/05 16:08:24;;;;;;;27.40;11.93;;;;;;;;;;10495638;28;20040;-74
2023/03/05 16:13:27;;;;;;;27.53;14.27;;;;;;;;;;10490138;28;20081;-75
2023/03/05 16:18:28;;;;;;;27.40;12.10;;;;;;;;;;10497661;28;20327;-78
2023/03/05 16:23:29;;;;;;;29.17;12.48;;;;;;;;;;10485967;28;20036;-76
2023/03/05 16:28:29;;;;;;;26.58;13.15;;;;;;;;;;10503359;28;20034;-73
2023/03/05 16:33:29;;;;;;;28.52;11.70;;;;;;;;;;10500691;28;20089;-76
2023/03/05 16:38:29;;;;;;;29.75;14.38;;;;;;;;;;10501792;28;20115;-74
2023/03/05 16:43:30;;;;;;;29.58;14.98;;;;;;;;;;10489334;28;20616;-73
2023/03/05 16:48:30;;;;;;;29.15;11.75;;;;;;;;;;10493295;28;20055;-73
2023/03/05 16:53:31;;;;;;;28.27;14.07;;;;;;;;;;10495716;28;20043;-79
2023/03/05 16:58:32;;;;;;;31.05;14.20;;;;;;;;;;10501261;28;20354;-75
2023/03/05 17:03:34;;;;;;;30.08;13.48;;;;;;;;;;10482385;28;20142;-72
2023/03/05 17:08:34;;;;;;;24.85;14.13;;;;;;;;;;10493356;28;20024;-77
2023/03/05 17:13:35;;;;;;;23.75;13.43;;;;;;;;;;10482234;22;20099;-73
2023/03/05 17:18:36;;;;;;;30.15;12.38;;;;;;;;;;10460166;28;20024;-78
2023/03/05 17:23:38;;;;;;;25.40;13.35;;;;;;;;;;10460220;28;20040;-74
2023/03/05 17:28:39;;;;;;;25.50;12.48;;;;;;;;;;10467541;28;20112;-76
2023/03/05 17:33:44;;;;;;;31.45;12.63;;;;;;;;;;10458393;28;20033;-79
2023/03/05 17:38:51;;;;;;;25.23;12.57;;;;;;;;;;10469685;28;20032;-74
2023/03/05 17:43:58;;;;;;;24.75;12.88;;;;;;;;;;10447470;28;20087;-76
2023/03/05 17:48:58;;;;;;;29.17;13.07;;;;;;;;;;10475326;28;20520;-80
2023/03/05 17:53:59;;;;;;;22.17;11.60;;;;;;;;;;10483201;28;20099;-85
2023/03/05 17:58:59;;;;;;;28.47;12.60;;;;;;;;;;10465950;28;20027;-75
2023/03/05 18:04:00;;;;;;;25.60;11.53;;;;;;;;;;10457504;28;20025;-74
2023/03/05 18:09:00;;;;;;;23.73;10.60;;;;;;;;;;10464539;28;20399;-79
2023/03/05 18:14:00;;;;;;;23.57;12.03;;;;;;;;;;10475836;28;20030;-78
2023/03/05 18:19:01;;;;;;;23.63;10.55;;;;;;;;;;10468746;28;20094;-80
2023/03/05 18:24:01;;;;;;;25.33;11.88;;;;;;;;;;10464641;28;20379;-75
2023/03/05 18:29:02;;;;;;;24.50;11.68;;;;;;;;;;10463520;28;20111;-82
2023/03/05 18:34:02;;;;;;;21.38;11.20;;;;;;;;;;10460742;28;20035;-79
2023/03/05 18:39:03;;;;;;;22.45;11.93;;;;;;;;;;10471394;28;20048;-75
2023/03/05 18:44:37;;;;;;;25.02;10.52;;;;;;;;;;10464618;28;20021;-78
2023/03/05 18:49:37;;;;;;;22.02;10.38;;;;;;;;;;10471904;28;20030;-75
2023/03/05 18:54:39;;;;;;;22.63;12.60;;;;;;;;;;10475678;28;20088;-76
2023/03/05 18:59:39;;;;;;;24.02;11.65;;;;;;;;;;10493790;28;20021;-73
2023/03/05 19:05:04;;;;;;;22.43;12.93;;;;;;;;;;10478215;28;20035;-75
2023/03/05 19:10:06;;;;;;;21.52;11.57;;;;;;;;;;10472611;28;20041;-79
2023/03/05 19:15:13;;;;;;;27.02;11.13;;;;;;;;;;10486737;28;20037;-77
2023/03/05 19:20:16;;;;;;;24.63;12.73;;;;;;;;;;11443371;22;20516;-75
2023/03/05 19:25:17;;;;;;;24.03;10.87;;;;;;;;;;10478761;28;20032;-77
2023/03/05 19:30:17;;;;;;;27.23;13.88;;;;;;;;;;10468485;28;20027;-73
2023/03/05 19:35:18;;;;;;;27.00;12.53;;;;;;;;;;10467657;28;20139;-74
2023/03/05 19:40:18;;;;;;;22.53;10.80;;;;;;;;;;10468565;28;20266;-76
2023/03/05 19:45:18;;;;;;;20.20;10.77;;;;;;;;;;10467780;28;20020;-77
2023/03/05 19:50:19;;;;;;;26.42;11.75;;;;;;;;;;10483760;28;20036;-75
2023/03/05 19:55:19;;;;;;;23.37;11.23;;;;;;;;;;10233450;28;20056;-80
2023/03/05 20:00:21;;;;;;;24.63;11.53;;;;;;;;;;10435793;28;20950;-80
2023/03/05 20:05:24;;;;;;;27.13;12.82;;;;;;;;;;10408190;28;20271;-77
2023/03/05 20:10:24;;;;;;;26.70;13.02;;;;;;;;;;10410754;28;20032;-78
2023/03/05 20:15:28;;;;;;;27.83;13.05;;;;;;;;;;10402519;28;20025;-75
2023/03/05 20:20:29;;;;;;;22.20;12.20;;;;;;;;;;10430310;28;20061;-77
2023/03/05 20:25:30;;;;;;;20.90;11.48;;;;;;;;;;10429225;28;20035;-76
2023/03/05 20:30:30;;;;;;;26.00;11.10;;;;;;;;;;10412093;28;20403;-76
2023/03/05 20:35:30;;;;;;;26.70;13.00;;;;;;;;;;10400320;28;20079;-76
2023/03/05 20:40:38;;;;;;;26.60;11.63;;;;;;;;;;10412216;28;20036;-77
2023/03/05 20:45:38;;;;;;;21.38;11.02;;;;;;;;;;10406549;28;20052;-73
2023/03/05 20:50:39;;;;;;;22.25;11.98;;;;;;;;;;10399679;28;20178;-74
2023/03/05 20:55:40;;;;;;;23.92;12.98;;;;;;;;;;10404366;28;20017;-75
2023/03/05 21:00:41;;;;;;;30.17;13.65;;;;;;;;;;10399673;28;20029;-72
2023/03/05 21:05:41;;;;;;;27.13;12.65;;;;;;;;;;10396813;28;20028;-72
2023/03/05 21:10:41;;;;;;;27.67;12.52;;;;;;;;;;10395132;28;20456;-74
2023/03/05 21:15:42;;;;;;;21.60;11.15;;;;;;;;;;10413651;28;20044;-73
2023/03/05 21:20:42;;;;;;;22.40;11.87;;;;;;;;;;10424095;28;20041;-74
2023/03/05 21:25:42;;;;;;;25.93;12.77;;;;;;;;;;10422811;28;20029;-72
2023/03/05 21:30:44;;;;;;;22.07;11.97;;;;;;;;;;10422400;28;20086;-72
2023/03/05 21:35:44;;;;;;;29.40;11.65;;;;;;;;;;10422782;28;20405;-73
2023/03/05 21:40:48;;;;;;;23.07;12.07;;;;;;;;;;10425492;28;20013;-76
2023/03/05 21:45:51;;;;;;;21.02;10.82;;;;;;;;;;10425312;28;20316;-73
2023/03/05 21:50:51;;;;;;;24.25;12.20;;;;;;;;;;10425566;28;20144;-73
2023/03/05 21:56:23;;;;;;;24.33;12.35;;;;;;;;;;10425489;28;20461;-74
2023/03/05 22:01:23;;;;;;;20.65;10.95;;;;;;;;;;10418068;28;20567;-73
2023/03/05 22:06:24;;;;;;;18.70;10.48;;;;;;;;;;10425896;28;20017;-76
2023/03/05 22:11:24;;;;;;;22.65;11.35;;;;;;;;;;10424947;28;20103;-72
2023/03/05 22:16:25;;;;;;;18.02;9.75;;;;;;;;;;10425306;28;20024;-73
2023/03/05 22:21:26;;;;;;;22.08;9.90;;;;;;;;;;10425844;28;20049;-80
2023/03/05 22:26:33;;;;;;;22.63;11.70;;;;;;;;;;10442379;28;20080;-72
2023/03/05 22:31:33;;;;;;;20.10;10.27;;;;;;;;;;10424772;28;20051;-78
2023/03/05 22:36:33;;;;;;;22.75;10.10;;;;;;;;;;10424827;28;20021;-72
2023/03/05 22:41:34;;;;;;;20.10;10.88;;;;;;;;;;10424599;28;20149;-72
2023/03/05 22:46:34;;;;;;;21.85;12.10;;;;;;;;;;10425785;28;20028;-74
2023/03/05 22:51:34;;;;;;;20.45;11.05;;;;;;;;;;10432784;28;20108;-72
2023/03/05 22:56:35;;;;;;;20.88;11.40;;;;;;;;;;10432332;28;20067;-73
2023/03/05 23:01:35;;;;;;;25.75;12.55;;;;;;;;;;10432628;28;20032;-72
2023/03/05 23:06:35;;;;;;;23.80;11.98;;;;;;;;;;10450100;28;20405;-73
2023/03/05 23:11:36;;;;;;;20.10;11.50;;;;;;;;;;10431161;28;20111;-74
2023/03/05 23:16:36;;;;;;;23.17;12.82;;;;;;;;;;10460295;22;20068;-72
2023/03/05 23:21:36;;;;;;;24.00;12.40;;;;;;;;;;10447646;28;20025;-71
2023/03/05 23:26:37;;;;;;;30.02;12.90;;;;;;;;;;10431262;28;20091;-72
2023/03/05 23:31:37;;;;;;;25.50;11.75;;;;;;;;;;10431204;28;20025;-72
2023/03/05 23:36:37;;;;;;;18.08;10.18;;;;;;;;;;10433619;28;20025;-72
2023/03/05 23:41:38;;;;;;;22.85;11.50;;;;;;;;;;10414367;28;20032;-72
2023/03/05 23:46:38;;;;;;;22.33;11.27;;;;;;;;;;10413980;28;20087;-73
2023/03/05 23:51:39;;;;;;;26.05;12.20;;;;;;;;;;10431469;28;20024;-76
2023/03/05 23:56:39;;;;;;;25.83;11.50;;;;;;;;;;10430048;28;20425;-78
